Terminal Aerodrome Forecast
Issued by NWS Charleston, WV

Current Version | Previous Version | Graphics & Text | Print | Product List | Glossary On
Versions: 1 2 3 4 5 6 7 8 9 10 11 12 13 14 15 16 17 18 19 20 21 22 23 24 25 26 27 28 29 30
000
FTUS41 KRLX 172300
TAFBKW
TAF
KBKW 172338Z 1800/1824 VRB03KT P6SM SCT040 OVC060
      TEMPO 1800/1802 4SM SHRA BR BKN035
     FM180200 14003KT 5SM BR SCT010 OVC040
     FM180800 15005KT 4SM SHRA BR BKN030
     FM181100 17005KT 2SM SHRA BR SCT005 OVC020
     FM181600 VRB03KT 3SM SHRA BR VCTS SCT004 OVC012CB
     FM182100 21006KT 4SM -SHRA HZ OVC010=

USA.gov is the U.S. government's official web portal to all federal, state and local government web resources and services.